Time,TemperatureF,DewpointF,PressureIn,WindDirection,WindDirectionDegrees,WindSpeedMPH,WindSpeedGustMPH,Humidity,HourlyPrecipIn,Conditions,Clouds,dailyrainin,SoftwareType,DateUTC
2013-01-20 00:23:00,44.0,-99.9,29.89,WSW,255,7.0,11.0,-999,-99.99,,,-99.99,,2013-01-20 05:23:00,
2013-01-20 00:33:00,44.0,-99.9,29.89,WSW,255,7.0,11.0,-999,-99.99,,,-99.99,,2013-01-20 05:33:00,
2013-01-20 00:43:00,44.0,-99.9,29.89,WSW,255,7.0,11.0,-999,-99.99,,,-99.99,,2013-01-20 05:43:00,
2013-01-20 00:52:00,42.0,-99.9,29.84,SSE,163,-999.0,10.0,-999,-99.99,,,-99.99,,2013-01-20 05:52:00,
2013-01-20 01:22:00,42.0,-99.9,29.84,SSE,163,-999.0,10.0,-999,-99.99,,,-99.99,,2013-01-20 06:22:00,
2013-01-20 01:34:00,42.0,-99.9,29.84,SSE,163,-999.0,10.0,-999,-99.99,,,-99.99,,2013-01-20 06:34:00,
2013-01-20 01:43:00,42.0,-99.9,29.84,SSE,163,-999.0,10.0,-999,-99.99,,,-99.99,,2013-01-20 06:43:00,
2013-01-20 01:52:00,41.0,-99.9,29.82,SSE,152,-999.0,7.0,-999,-99.99,,,-99.99,,2013-01-20 06:52:00,
2013-01-20 02:22:00,41.0,-99.9,29.82,SSE,152,-999.0,7.0,-999,-99.99,,,-99.99,,2013-01-20 07:22:00,
2013-01-20 02:32:00,41.0,-99.9,29.82,SSE,152,-999.0,7.0,-999,-99.99,,,-99.99,,2013-01-20 07:32:00,
2013-01-20 02:43:00,41.0,-99.9,29.82,SSE,152,-999.0,7.0,-999,-99.99,,,-99.99,,2013-01-20 07:43:00,
2013-01-20 02:52:00,40.0,-99.9,29.81,SE,146,-999.0,10.0,-999,-99.99,,,-99.99,,2013-01-20 07:52:00,
2013-01-20 03:22:00,40.0,-99.9,29.81,SE,146,-999.0,10.0,-999,-99.99,,,-99.99,,2013-01-20 08:22:00,
2013-01-20 03:32:00,40.0,-99.9,29.81,SE,146,-999.0,10.0,-999,-99.99,,,-99.99,,2013-01-20 08:32:00,
2013-01-20 03:42:00,40.0,-99.9,29.81,SE,146,-999.0,10.0,-999,-99.99,,,-99.99,,2013-01-20 08:42:00,
2013-01-20 03:52:00,39.0,-99.9,29.79,SW,228,-999.0,7.0,-999,-99.99,,,-99.99,,2013-01-20 08:52:00,
2013-01-20 04:22:00,39.0,-99.9,29.79,SW,228,-999.0,7.0,-999,-99.99,,,-99.99,,2013-01-20 09:22:00,
2013-01-20 04:33:00,39.0,-99.9,29.79,SW,228,-999.0,7.0,-999,-99.99,,,-99.99,,2013-01-20 09:33:00,
2013-01-20 04:43:00,39.0,-99.9,29.79,SW,228,-999.0,7.0,-999,-99.99,,,-99.99,,2013-01-20 09:43:00,
2013-01-20 04:52:00,36.0,-99.9,29.75,South,180,-999.0,-999.0,-999,-99.99,,,-99.99,,2013-01-20 09:52:00,
2013-01-20 05:23:00,36.0,-99.9,29.75,South,180,-999.0,-999.0,-999,-99.99,,,-99.99,,2013-01-20 10:23:00,
2013-01-20 05:33:00,36.0,-99.9,29.75,South,180,-999.0,-999.0,-999,-99.99,,,-99.99,,2013-01-20 10:33:00,
2013-01-20 05:42:00,36.0,-99.9,29.75,South,180,-999.0,-999.0,-999,-99.99,,,-99.99,,2013-01-20 10:42:00,
2013-01-20 05:52:00,31.0,-99.9,29.72,South,180,-999.0,-999.0,-999,-99.99,,,-99.99,,2013-01-20 10:52:00,
2013-01-20 06:22:00,31.0,-99.9,29.72,South,180,-999.0,-999.0,-999,-99.99,,,-99.99,,2013-01-20 11:22:00,
2013-01-20 06:33:00,31.0,-99.9,29.72,South,180,-999.0,-999.0,-999,-99.99,,,-99.99,,2013-01-20 11:33:00,
2013-01-20 06:43:00,31.0,-99.9,29.72,South,180,-999.0,-999.0,-999,-99.99,,,-99.99,,2013-01-20 11:43:00,
2013-01-20 06:52:00,30.0,-99.9,29.71,South,180,-999.0,-999.0,-999,-99.99,,,-99.99,,2013-01-20 11:52:00,
2013-01-20 07:23:00,30.0,-99.9,29.71,South,180,-999.0,-999.0,-999,-99.99,,,-99.99,,2013-01-20 12:23:00,
2013-01-20 07:34:00,30.0,-99.9,29.71,South,180,-999.0,-999.0,-999,-99.99,,,-99.99,,2013-01-20 12:34:00,
2013-01-20 07:43:00,30.0,-99.9,29.71,South,180,-999.0,-999.0,-999,-99.99,,,-99.99,,2013-01-20 12:43:00,
2013-01-20 07:52:00,29.0,-99.9,29.71,ESE,107,-999.0,-999.0,-999,-99.99,,,-99.99,,2013-01-20 12:52:00,
2013-01-20 08:23:00,29.0,-99.9,29.71,ESE,107,-999.0,-999.0,-999,-99.99,,,-99.99,,2013-01-20 13:23:00,
2013-01-20 08:33:00,29.0,-99.9,29.71,ESE,107,-999.0,-999.0,-999,-99.99,,,-99.99,,2013-01-20 13:33:00,
2013-01-20 08:43:00,29.0,-99.9,29.71,ESE,107,-999.0,-999.0,-999,-99.99,,,-99.99,,2013-01-20 13:43:00,
2013-01-20 08:52:00,41.0,-99.9,29.71,NW,312,5.0,12.0,-999,-99.99,,,-99.99,,2013-01-20 13:52:00,
2013-01-20 09:23:00,41.0,-99.9,29.71,NW,312,5.0,12.0,-999,-99.99,,,-99.99,,2013-01-20 14:23:00,
2013-01-20 09:33:00,41.0,-99.9,29.71,NW,312,5.0,12.0,-999,-99.99,,,-99.99,,2013-01-20 14:33:00,
2013-01-20 09:43:00,41.0,-99.9,29.71,NW,312,5.0,12.0,-999,-99.99,,,-99.99,,2013-01-20 14:43:00,
2013-01-20 09:52:00,47.0,-99.9,29.70,SW,229,-999.0,10.0,-999,-99.99,,,-99.99,,2013-01-20 14:52:00,
2013-01-20 10:23:00,47.0,-99.9,29.70,SW,229,-999.0,10.0,-999,-99.99,,,-99.99,,2013-01-20 15:23:00,
2013-01-20 10:33:00,47.0,-99.9,29.70,SW,229,-999.0,10.0,-999,-99.99,,,-99.99,,2013-01-20 15:33:00,
2013-01-20 10:43:00,47.0,-99.9,29.70,SW,229,-999.0,10.0,-999,-99.99,,,-99.99,,2013-01-20 15:43:00,
2013-01-20 10:52:00,50.0,-99.9,29.69,WNW,289,7.0,12.0,-999,-99.99,,,-99.99,,2013-01-20 15:52:00,
2013-01-20 11:33:00,50.0,-99.9,29.69,WNW,289,7.0,12.0,-999,-99.99,,,-99.99,,2013-01-20 16:33:00,
2013-01-20 11:43:00,50.0,-99.9,29.69,WNW,289,7.0,12.0,-999,-99.99,,,-99.99,,2013-01-20 16:43:00,
2013-01-20 11:52:00,52.0,-99.9,29.66,WSW,240,13.0,16.0,-999,-99.99,,,-99.99,,2013-01-20 16:52:00,
2013-01-20 12:23:00,52.0,-99.9,29.66,WSW,240,13.0,16.0,-999,-99.99,,,-99.99,,2013-01-20 17:23:00,
2013-01-20 12:33:00,52.0,-99.9,29.66,WSW,240,13.0,16.0,-999,-99.99,,,-99.99,,2013-01-20 17:33:00,
2013-01-20 12:43:00,52.0,-99.9,29.66,WSW,240,13.0,16.0,-999,-99.99,,,-99.99,,2013-01-20 17:43:00,
2013-01-20 12:52:00,52.0,-99.9,29.66,SSW,205,5.0,14.0,-999,-99.99,,,-99.99,,2013-01-20 17:52:00,
2013-01-20 13:24:00,52.0,-99.9,29.66,SSW,205,5.0,14.0,-999,-99.99,,,-99.99,,2013-01-20 18:24:00,
2013-01-20 13:33:00,52.0,-99.9,29.66,SSW,205,5.0,14.0,-999,-99.99,,,-99.99,,2013-01-20 18:33:00,
2013-01-20 13:43:00,52.0,-99.9,29.66,SSW,205,5.0,14.0,-999,-99.99,,,-99.99,,2013-01-20 18:43:00,
2013-01-20 13:52:00,53.0,-99.9,29.66,West,273,5.0,19.0,-999,-99.99,,,-99.99,,2013-01-20 18:52:00,
2013-01-20 14:23:00,53.0,-99.9,29.66,West,273,5.0,19.0,-999,-99.99,,,-99.99,,2013-01-20 19:23:00,
2013-01-20 14:33:00,53.0,-99.9,29.66,West,273,5.0,19.0,-999,-99.99,,,-99.99,,2013-01-20 19:33:00,
2013-01-20 14:43:00,53.0,-99.9,29.66,West,273,5.0,19.0,-999,-99.99,,,-99.99,,2013-01-20 19:43:00,
2013-01-20 14:52:00,52.0,-99.9,29.70,SSW,213,3.0,20.0,-999,-99.99,,,-99.99,,2013-01-20 19:52:00,
2013-01-20 15:23:00,52.0,-99.9,29.70,SSW,213,3.0,20.0,-999,-99.99,,,-99.99,,2013-01-20 20:23:00,
2013-01-20 15:33:00,52.0,-99.9,29.70,SSW,213,3.0,20.0,-999,-99.99,,,-99.99,,2013-01-20 20:33:00,
2013-01-20 15:43:00,52.0,-99.9,29.70,SSW,213,3.0,20.0,-999,-99.99,,,-99.99,,2013-01-20 20:43:00,
2013-01-20 15:52:00,49.0,-99.9,29.74,WSW,249,9.0,21.0,-999,-99.99,,,-99.99,,2013-01-20 20:52:00,
2013-01-20 16:34:00,49.0,-99.9,29.74,WSW,249,9.0,21.0,-999,-99.99,,,-99.99,,2013-01-20 21:34:00,
2013-01-20 16:43:00,49.0,-99.9,29.74,WSW,249,9.0,21.0,-999,-99.99,,,-99.99,,2013-01-20 21:43:00,
2013-01-20 16:52:00,46.0,-99.9,29.78,WNW,298,6.0,13.0,-999,-99.99,,,-99.99,,2013-01-20 21:52:00,
2013-01-20 17:23:00,46.0,-99.9,29.78,WNW,298,6.0,13.0,-999,-99.99,,,-99.99,,2013-01-20 22:23:00,
2013-01-20 17:34:00,46.0,-99.9,29.78,WNW,298,6.0,13.0,-999,-99.99,,,-99.99,,2013-01-20 22:34:00,
2013-01-20 17:43:00,46.0,-99.9,29.78,WNW,298,6.0,13.0,-999,-99.99,,,-99.99,,2013-01-20 22:43:00,
2013-01-20 17:52:00,42.0,-99.9,29.85,West,281,-999.0,10.0,-999,-99.99,,,-99.99,,2013-01-20 22:52:00,
2013-01-20 18:23:00,42.0,-99.9,29.85,West,281,-999.0,10.0,-999,-99.99,,,-99.99,,2013-01-20 23:23:00,
2013-01-20 18:33:00,42.0,-99.9,29.85,West,281,-999.0,10.0,-999,-99.99,,,-99.99,,2013-01-20 23:33:00,
2013-01-20 18:43:00,42.0,-99.9,29.85,West,281,-999.0,10.0,-999,-99.99,,,-99.99,,2013-01-20 23:43:00,
2013-01-20 18:52:00,39.0,-99.9,29.89,NW,322,8.0,14.0,-999,-99.99,,,-99.99,,2013-01-20 23:52:00,
2013-01-20 19:23:00,39.0,-99.9,29.89,NW,322,8.0,14.0,-999,-99.99,,,-99.99,,2013-01-21 00:23:00,
2013-01-20 19:33:00,39.0,-99.9,29.89,NW,322,8.0,14.0,-999,-99.99,,,-99.99,,2013-01-21 00:33:00,
2013-01-20 19:43:00,39.0,-99.9,29.89,NW,322,8.0,14.0,-999,-99.99,,,-99.99,,2013-01-21 00:43:00,
2013-01-20 19:52:00,36.0,-99.9,29.93,West,276,9.0,16.0,-999,-99.99,,,-99.99,,2013-01-21 00:52:00,
2013-01-20 20:23:00,36.0,-99.9,29.93,West,276,9.0,16.0,-999,-99.99,,,-99.99,,2013-01-21 01:23:00,
2013-01-20 20:33:00,36.0,-99.9,29.93,West,276,9.0,16.0,-999,-99.99,,,-99.99,,2013-01-21 01:33:00,
2013-01-20 20:44:00,36.0,-99.9,29.93,West,276,9.0,16.0,-999,-99.99,,,-99.99,,2013-01-21 01:44:00,
2013-01-20 20:52:00,33.0,-99.9,29.97,NW,313,-999.0,13.0,-999,-99.99,,,-99.99,,2013-01-21 01:52:00,
2013-01-20 21:23:00,33.0,-99.9,29.97,NW,313,-999.0,13.0,-999,-99.99,,,-99.99,,2013-01-21 02:23:00,
2013-01-20 21:34:00,33.0,-99.9,29.97,NW,313,-999.0,13.0,-999,-99.99,,,-99.99,,2013-01-21 02:34:00,
2013-01-20 21:43:00,33.0,-99.9,29.97,NW,313,-999.0,13.0,-999,-99.99,,,-99.99,,2013-01-21 02:43:00,
2013-01-20 21:52:00,31.0,-99.9,29.98,NW,316,8.0,19.0,-999,-99.99,,,-99.99,,2013-01-21 02:52:00,
2013-01-20 22:33:00,31.0,-99.9,29.98,NW,316,8.0,19.0,-999,-99.99,,,-99.99,,2013-01-21 03:33:00,
2013-01-20 22:44:00,31.0,-99.9,29.98,NW,316,8.0,19.0,-999,-99.99,,,-99.99,,2013-01-21 03:44:00,
2013-01-20 22:52:00,29.0,-99.9,30.00,NW,305,7.0,16.0,-999,-99.99,,,-99.99,,2013-01-21 03:52:00,
2013-01-20 23:23:00,29.0,-99.9,30.00,NW,305,7.0,16.0,-999,-99.99,,,-99.99,,2013-01-21 04:23:00,
2013-01-20 23:33:00,29.0,-99.9,30.00,NW,305,7.0,16.0,-999,-99.99,,,-99.99,,2013-01-21 04:33:00,
2013-01-20 23:43:00,29.0,-99.9,30.00,NW,305,7.0,16.0,-999,-99.99,,,-99.99,,2013-01-21 04:43:00,
2013-01-20 23:52:00,29.0,-99.9,30.01,NW,321,9.0,11.0,-999,-99.99,,,-99.99,,2013-01-21 04:52:00,